Carroll, New Hampshire
Current Conditions -  °F | °C
As of 3:52 PM on Friday 19 Dec 2014 (Local Time) from KHIE Reporting Station
Overcast Overcast  
Wind Chill: 25°   Ceiling: 1400
Heat Index: 25°   Visibility: 10mi
Dew Point: 20°   Wind: 3mph
Humidity: 81%   Direction: 10°N
Pressure: 30.02"   Gusts: NA
Location:  44.3374°N, 71.528°W
Report Text: KHIE 192052Z AUTO 01003KT 10SM OVC014 M04/M07 A3002 RMK AO2 SLP184 60000 T10391067 51014
Loading
Personal Weather Stations






























Interactive Weather Map New forecast layout! Learn more

10-Day Weather Forecast

Advertisements
Track Severe Weather on mobile